sensor_id;sensor_type;location;lat;lon;timestamp;P1;durP1;ratioP1;P2;durP2;ratioP2
59312;SDS011;45084;51.486;7.366;2024-02-14T00:17:37;6.22;;;3.40;;
59312;SDS011;45084;51.486;7.366;2024-02-14T00:20:03;8.57;;;3.42;;
59312;SDS011;45084;51.486;7.366;2024-02-14T01:10:31;5.90;;;2.67;;
59312;SDS011;45084;51.486;7.366;2024-02-14T01:12:58;4.65;;;2.08;;
59312;SDS011;45084;51.486;7.366;2024-02-14T01:15:23;2.55;;;2.05;;
59312;SDS011;45084;51.486;7.366;2024-02-14T01:17:49;4.07;;;2.17;;
59312;SDS011;45084;51.486;7.366;2024-02-14T01:20:14;3.42;;;2.17;;
59312;SDS011;45084;51.486;7.366;2024-02-14T01:22:40;4.95;;;1.98;;
59312;SDS011;45084;51.486;7.366;2024-02-14T01:25:06;3.33;;;2.10;;
59312;SDS011;45084;51.486;7.366;2024-02-14T01:27:32;4.90;;;2.30;;
59312;SDS011;45084;51.486;7.366;2024-02-14T01:29:58;7.60;;;2.55;;
59312;SDS011;45084;51.486;7.366;2024-02-14T01:32:24;6.28;;;3.17;;
59312;SDS011;45084;51.486;7.366;2024-02-14T01:34:51;4.68;;;2.00;;
59312;SDS011;45084;51.486;7.366;2024-02-14T01:37:16;3.47;;;2.00;;
59312;SDS011;45084;51.486;7.366;2024-02-14T01:39:42;2.75;;;2.40;;
59312;SDS011;45084;51.486;7.366;2024-02-14T01:42:07;1.88;;;1.70;;
59312;SDS011;45084;51.486;7.366;2024-02-14T01:44:33;7.15;;;2.97;;
59312;SDS011;45084;51.486;7.366;2024-02-14T01:46:59;2.17;;;1.98;;
59312;SDS011;45084;51.486;7.366;2024-02-14T01:49:25;5.53;;;2.53;;
59312;SDS011;45084;51.486;7.366;2024-02-14T01:51:55;4.15;;;2.22;;
59312;SDS011;45084;51.486;7.366;2024-02-14T01:54:24;3.20;;;2.20;;
59312;SDS011;45084;51.486;7.366;2024-02-14T01:56:51;3.92;;;2.25;;
59312;SDS011;45084;51.486;7.366;2024-02-14T01:59:17;4.25;;;2.08;;
59312;SDS011;45084;51.486;7.366;2024-02-14T02:01:43;5.07;;;2.22;;
59312;SDS011;45084;51.486;7.366;2024-02-14T02:04:09;3.17;;;2.03;;
59312;SDS011;45084;51.486;7.366;2024-02-14T02:06:35;2.67;;;2.17;;
59312;SDS011;45084;51.486;7.366;2024-02-14T02:09:01;3.38;;;2.40;;
59312;SDS011;45084;51.486;7.366;2024-02-14T02:11:27;2.83;;;2.40;;
59312;SDS011;45084;51.486;7.366;2024-02-14T02:13:52;2.67;;;1.98;;
59312;SDS011;45084;51.486;7.366;2024-02-14T02:16:18;6.45;;;2.33;;
59312;SDS011;45084;51.486;7.366;2024-02-14T02:18:44;4.97;;;2.42;;
59312;SDS011;45084;51.486;7.366;2024-02-14T02:21:10;2.67;;;1.83;;
59312;SDS011;45084;51.486;7.366;2024-02-14T02:23:38;2.67;;;2.22;;
59312;SDS011;45084;51.486;7.366;2024-02-14T02:26:05;3.53;;;2.20;;
59312;SDS011;45084;51.486;7.366;2024-02-14T02:28:31;4.30;;;2.50;;
59312;SDS011;45084;51.486;7.366;2024-02-14T02:30:57;3.42;;;2.20;;
59312;SDS011;45084;51.486;7.366;2024-02-14T02:33:22;2.80;;;2.10;;
59312;SDS011;45084;51.486;7.366;2024-02-14T02:35:48;2.80;;;2.00;;
59312;SDS011;45084;51.486;7.366;2024-02-14T02:38:15;2.63;;;2.30;;
59312;SDS011;45084;51.486;7.366;2024-02-14T02:40:44;4.20;;;2.30;;
59312;SDS011;45084;51.486;7.366;2024-02-14T02:43:10;5.10;;;2.20;;
59312;SDS011;45084;51.486;7.366;2024-02-14T02:45:36;2.83;;;2.40;;
59312;SDS011;45084;51.486;7.366;2024-02-14T02:48:01;2.70;;;2.20;;
59312;SDS011;45084;51.486;7.366;2024-02-14T02:50:27;2.35;;;2.00;;
59312;SDS011;45084;51.486;7.366;2024-02-14T02:52:54;2.55;;;1.85;;
59312;SDS011;45084;51.486;7.366;2024-02-14T02:55:19;3.88;;;2.40;;
59312;SDS011;45084;51.486;7.366;2024-02-14T02:57:45;4.90;;;2.15;;
59312;SDS011;45084;51.486;7.366;2024-02-14T03:00:11;2.33;;;2.00;;
59312;SDS011;45084;51.486;7.366;2024-02-14T03:02:38;2.00;;;1.85;;
59312;SDS011;45084;51.486;7.366;2024-02-14T03:05:06;3.60;;;2.15;;
59312;SDS011;45084;51.486;7.366;2024-02-14T03:07:35;3.63;;;2.00;;
59312;SDS011;45084;51.486;7.366;2024-02-14T03:10:04;2.40;;;2.05;;
59312;SDS011;45084;51.486;7.366;2024-02-14T03:12:30;6.07;;;1.90;;
59312;SDS011;45084;51.486;7.366;2024-02-14T03:14:57;2.13;;;2.00;;
59312;SDS011;45084;51.486;7.366;2024-02-14T03:17:23;2.53;;;1.70;;
59312;SDS011;45084;51.486;7.366;2024-02-14T03:19:49;5.03;;;1.85;;
59312;SDS011;45084;51.486;7.366;2024-02-14T03:22:16;2.75;;;1.63;;
59312;SDS011;45084;51.486;7.366;2024-02-14T03:24:43;2.65;;;1.85;;
59312;SDS011;45084;51.486;7.366;2024-02-14T03:27:11;1.60;;;1.50;;
59312;SDS011;45084;51.486;7.366;2024-02-14T03:29:37;3.53;;;1.77;;
59312;SDS011;45084;51.486;7.366;2024-02-14T03:32:04;3.42;;;2.17;;
59312;SDS011;45084;51.486;7.366;2024-02-14T03:34:31;2.38;;;1.95;;
59312;SDS011;45084;51.486;7.366;2024-02-14T03:36:58;2.55;;;2.28;;
59312;SDS011;45084;51.486;7.366;2024-02-14T03:39:26;3.80;;;2.15;;
59312;SDS011;45084;51.486;7.366;2024-02-14T03:41:51;2.60;;;2.00;;
59312;SDS011;45084;51.486;7.366;2024-02-14T03:44:19;3.45;;;1.90;;
59312;SDS011;45084;51.486;7.366;2024-02-14T03:46:45;2.65;;;1.98;;
59312;SDS011;45084;51.486;7.366;2024-02-14T03:49:12;2.13;;;1.92;;
59312;SDS011;45084;51.486;7.366;2024-02-14T03:51:38;2.20;;;2.00;;
59312;SDS011;45084;51.486;7.366;2024-02-14T03:54:03;3.45;;;2.05;;
59312;SDS011;45084;51.486;7.366;2024-02-14T03:56:30;2.70;;;2.50;;
59312;SDS011;45084;51.486;7.366;2024-02-14T03:58:58;2.42;;;1.92;;
59312;SDS011;45084;51.486;7.366;2024-02-14T04:01:24;4.53;;;2.25;;
59312;SDS011;45084;51.486;7.366;2024-02-14T04:03:50;3.70;;;2.55;;
59312;SDS011;45084;51.486;7.366;2024-02-14T04:06:15;3.67;;;2.35;;
59312;SDS011;45084;51.486;7.366;2024-02-14T04:08:41;5.10;;;2.75;;
59312;SDS011;45084;51.486;7.366;2024-02-14T04:11:07;4.70;;;2.35;;
59312;SDS011;45084;51.486;7.366;2024-02-14T04:13:32;2.63;;;2.35;;
59312;SDS011;45084;51.486;7.366;2024-02-14T04:15:58;4.13;;;2.58;;
59312;SDS011;45084;51.486;7.366;2024-02-14T04:18:24;4.65;;;2.63;;
59312;SDS011;45084;51.486;7.366;2024-02-14T04:20:49;2.45;;;2.22;;
59312;SDS011;45084;51.486;7.366;2024-02-14T04:23:15;3.28;;;2.58;;
59312;SDS011;45084;51.486;7.366;2024-02-14T04:25:40;2.83;;;2.60;;
59312;SDS011;45084;51.486;7.366;2024-02-14T04:28:06;4.78;;;2.88;;
59312;SDS011;45084;51.486;7.366;2024-02-14T04:30:32;5.88;;;2.72;;
59312;SDS011;45084;51.486;7.366;2024-02-14T04:32:57;4.53;;;2.63;;
59312;SDS011;45084;51.486;7.366;2024-02-14T04:35:23;4.22;;;2.63;;
59312;SDS011;45084;51.486;7.366;2024-02-14T04:37:49;3.47;;;2.80;;
59312;SDS011;45084;51.486;7.366;2024-02-14T04:40:14;3.28;;;2.97;;
59312;SDS011;45084;51.486;7.366;2024-02-14T04:42:41;3.47;;;3.10;;
59312;SDS011;45084;51.486;7.366;2024-02-14T04:45:07;3.38;;;3.08;;
59312;SDS011;45084;51.486;7.366;2024-02-14T04:47:33;4.85;;;3.50;;
59312;SDS011;45084;51.486;7.366;2024-02-14T04:49:59;5.10;;;3.58;;
59312;SDS011;45084;51.486;7.366;2024-02-14T04:52:25;4.35;;;3.90;;
59312;SDS011;45084;51.486;7.366;2024-02-14T04:54:51;4.65;;;4.18;;
59312;SDS011;45084;51.486;7.366;2024-02-14T04:57:17;4.55;;;4.00;;
59312;SDS011;45084;51.486;7.366;2024-02-14T04:59:45;4.80;;;4.40;;
59312;SDS011;45084;51.486;7.366;2024-02-14T05:02:10;4.82;;;4.43;;
59312;SDS011;45084;51.486;7.366;2024-02-14T05:04:36;5.13;;;4.63;;
59312;SDS011;45084;51.486;7.366;2024-02-14T05:07:05;7.40;;;5.47;;
59312;SDS011;45084;51.486;7.366;2024-02-14T05:09:30;5.97;;;5.38;;
59312;SDS011;45084;51.486;7.366;2024-02-14T05:11:56;6.70;;;5.00;;
59312;SDS011;45084;51.486;7.366;2024-02-14T05:14:21;6.82;;;5.43;;
59312;SDS011;45084;51.486;7.366;2024-02-14T05:16:48;6.70;;;5.18;;
59312;SDS011;45084;51.486;7.366;2024-02-14T05:19:14;6.20;;;5.22;;
59312;SDS011;45084;51.486;7.366;2024-02-14T05:21:39;7.15;;;5.78;;
59312;SDS011;45084;51.486;7.366;2024-02-14T05:24:05;7.47;;;5.72;;
59312;SDS011;45084;51.486;7.366;2024-02-14T05:26:31;6.20;;;5.57;;
59312;SDS011;45084;51.486;7.366;2024-02-14T05:28:57;5.70;;;5.20;;
59312;SDS011;45084;51.486;7.366;2024-02-14T05:31:24;6.25;;;5.40;;
59312;SDS011;45084;51.486;7.366;2024-02-14T05:33:49;7.05;;;5.35;;
59312;SDS011;45084;51.486;7.366;2024-02-14T05:36:15;5.72;;;5.20;;
59312;SDS011;45084;51.486;7.366;2024-02-14T05:38:41;6.30;;;5.57;;
59312;SDS011;45084;51.486;7.366;2024-02-14T05:41:07;9.52;;;5.53;;
59312;SDS011;45084;51.486;7.366;2024-02-14T05:43:33;6.28;;;5.65;;
59312;SDS011;45084;51.486;7.366;2024-02-14T05:45:59;6.22;;;5.63;;
59312;SDS011;45084;51.486;7.366;2024-02-14T05:48:25;6.10;;;5.47;;
59312;SDS011;45084;51.486;7.366;2024-02-14T05:50:51;6.90;;;5.80;;
59312;SDS011;45084;51.486;7.366;2024-02-14T05:53:17;6.07;;;5.47;;
59312;SDS011;45084;51.486;7.366;2024-02-14T05:55:42;5.82;;;5.32;;
59312;SDS011;45084;51.486;7.366;2024-02-14T05:58:08;8.48;;;5.70;;
59312;SDS011;45084;51.486;7.366;2024-02-14T06:00:34;7.00;;;6.18;;
59312;SDS011;45084;51.486;7.366;2024-02-14T06:02:59;7.80;;;6.45;;
59312;SDS011;45084;51.486;7.366;2024-02-14T06:05:25;7.10;;;6.38;;
59312;SDS011;45084;51.486;7.366;2024-02-14T06:07:51;7.55;;;6.43;;
59312;SDS011;45084;51.486;7.366;2024-02-14T06:10:16;8.02;;;7.22;;
59312;SDS011;45084;51.486;7.366;2024-02-14T06:12:43;7.22;;;6.53;;
59312;SDS011;45084;51.486;7.366;2024-02-14T06:15:09;7.03;;;6.32;;
59312;SDS011;45084;51.486;7.366;2024-02-14T06:17:35;9.27;;;7.07;;
59312;SDS011;45084;51.486;7.366;2024-02-14T06:20:01;7.22;;;6.53;;
59312;SDS011;45084;51.486;7.366;2024-02-14T06:22:32;7.10;;;6.35;;
59312;SDS011;45084;51.486;7.366;2024-02-14T06:24:58;8.60;;;6.20;;
59312;SDS011;45084;51.486;7.366;2024-02-14T06:27:24;7.13;;;6.43;;
59312;SDS011;45084;51.486;7.366;2024-02-14T06:29:50;7.25;;;6.53;;
59312;SDS011;45084;51.486;7.366;2024-02-14T06:32:18;7.68;;;6.50;;
59312;SDS011;45084;51.486;7.366;2024-02-14T06:34:44;8.80;;;6.60;;
59312;SDS011;45084;51.486;7.366;2024-02-14T06:37:09;7.78;;;6.57;;
59312;SDS011;45084;51.486;7.366;2024-02-14T06:39:35;6.82;;;5.95;;
59312;SDS011;45084;51.486;7.366;2024-02-14T06:42:00;7.25;;;6.55;;
59312;SDS011;45084;51.486;7.366;2024-02-14T06:44:26;7.35;;;6.65;;
59312;SDS011;45084;51.486;7.366;2024-02-14T06:46:52;7.40;;;6.35;;
59312;SDS011;45084;51.486;7.366;2024-02-14T06:49:18;6.90;;;6.30;;
59312;SDS011;45084;51.486;7.366;2024-02-14T06:51:44;6.88;;;6.28;;
59312;SDS011;45084;51.486;7.366;2024-02-14T06:54:10;6.72;;;6.07;;
59312;SDS011;45084;51.486;7.366;2024-02-14T06:56:37;7.55;;;6.80;;
59312;SDS011;45084;51.486;7.366;2024-02-14T06:59:03;7.32;;;6.72;;
59312;SDS011;45084;51.486;7.366;2024-02-14T07:01:29;8.15;;;7.13;;
59312;SDS011;45084;51.486;7.366;2024-02-14T07:03:55;8.82;;;7.32;;
59312;SDS011;45084;51.486;7.366;2024-02-14T07:06:21;8.13;;;7.30;;
59312;SDS011;45084;51.486;7.366;2024-02-14T07:08:47;8.05;;;7.32;;
59312;SDS011;45084;51.486;7.366;2024-02-14T07:11:13;9.57;;;7.70;;
59312;SDS011;45084;51.486;7.366;2024-02-14T07:13:40;8.77;;;7.88;;
59312;SDS011;45084;51.486;7.366;2024-02-14T07:16:06;9.13;;;8.15;;
59312;SDS011;45084;51.486;7.366;2024-02-14T07:18:33;9.73;;;8.50;;
59312;SDS011;45084;51.486;7.366;2024-02-14T07:20:59;13.68;;;8.57;;
59312;SDS011;45084;51.486;7.366;2024-02-14T07:23:24;9.80;;;8.13;;
59312;SDS011;45084;51.486;7.366;2024-02-14T07:25:51;10.30;;;8.98;;
59312;SDS011;45084;51.486;7.366;2024-02-14T07:28:17;11.27;;;10.05;;
59312;SDS011;45084;51.486;7.366;2024-02-14T07:30:43;10.32;;;9.23;;
59312;SDS011;45084;51.486;7.366;2024-02-14T07:33:09;10.40;;;9.13;;
59312;SDS011;45084;51.486;7.366;2024-02-14T07:35:36;10.48;;;9.40;;
59312;SDS011;45084;51.486;7.366;2024-02-14T07:38:02;11.35;;;10.25;;
59312;SDS011;45084;51.486;7.366;2024-02-14T07:40:29;13.75;;;10.57;;
59312;SDS011;45084;51.486;7.366;2024-02-14T07:42:56;14.10;;;10.13;;
59312;SDS011;45084;51.486;7.366;2024-02-14T07:45:22;12.88;;;10.90;;
59312;SDS011;45084;51.486;7.366;2024-02-14T07:47:51;13.02;;;11.45;;
59312;SDS011;45084;51.486;7.366;2024-02-14T07:50:16;12.88;;;10.55;;
59312;SDS011;45084;51.486;7.366;2024-02-14T07:52:45;13.73;;;11.40;;
59312;SDS011;45084;51.486;7.366;2024-02-14T07:55:12;12.27;;;11.07;;
59312;SDS011;45084;51.486;7.366;2024-02-14T07:57:38;12.20;;;10.93;;
59312;SDS011;45084;51.486;7.366;2024-02-14T08:00:05;13.02;;;10.70;;
59312;SDS011;45084;51.486;7.366;2024-02-14T08:02:33;11.38;;;10.27;;
59312;SDS011;45084;51.486;7.366;2024-02-14T08:04:59;11.48;;;10.23;;
59312;SDS011;45084;51.486;7.366;2024-02-14T08:07:25;12.20;;;10.98;;
59312;SDS011;45084;51.486;7.366;2024-02-14T08:09:51;12.10;;;10.73;;
59312;SDS011;45084;51.486;7.366;2024-02-14T08:12:16;11.70;;;10.50;;
59312;SDS011;45084;51.486;7.366;2024-02-14T08:14:42;14.98;;;10.98;;
59312;SDS011;45084;51.486;7.366;2024-02-14T08:17:08;13.63;;;10.63;;
59312;SDS011;45084;51.486;7.366;2024-02-14T08:19:33;12.38;;;11.07;;
59312;SDS011;45084;51.486;7.366;2024-02-14T08:21:59;12.30;;;10.05;;
59312;SDS011;45084;51.486;7.366;2024-02-14T08:24:26;11.93;;;10.50;;
59312;SDS011;45084;51.486;7.366;2024-02-14T08:26:52;13.50;;;9.32;;
59312;SDS011;45084;51.486;7.366;2024-02-14T08:29:18;11.13;;;9.27;;
59312;SDS011;45084;51.486;7.366;2024-02-14T08:31:44;10.50;;;9.40;;
59312;SDS011;45084;51.486;7.366;2024-02-14T08:34:09;9.52;;;8.63;;
59312;SDS011;45084;51.486;7.366;2024-02-14T08:43:16;8.27;;;7.15;;
59312;SDS011;45084;51.486;7.366;2024-02-14T08:46:28;9.45;;;7.57;;
59312;SDS011;45084;51.486;7.366;2024-02-14T08:49:41;7.10;;;6.40;;
59312;SDS011;45084;51.486;7.366;2024-02-14T08:52:59;7.70;;;7.00;;
59312;SDS011;45084;51.486;7.366;2024-02-14T08:55:58;8.35;;;7.28;;
59312;SDS011;45084;51.486;7.366;2024-02-14T09:02:29;6.90;;;6.30;;
59312;SDS011;45084;51.486;7.366;2024-02-14T09:04:55;7.78;;;7.00;;
59312;SDS011;45084;51.486;7.366;2024-02-14T09:07:20;7.22;;;6.22;;
59312;SDS011;45084;51.486;7.366;2024-02-14T09:09:46;7.30;;;6.60;;
59312;SDS011;45084;51.486;7.366;2024-02-14T09:12:12;6.97;;;6.40;;
59312;SDS011;45084;51.486;7.366;2024-02-14T09:14:38;7.45;;;6.43;;
59312;SDS011;45084;51.486;7.366;2024-02-14T09:17:04;8.48;;;6.15;;
59312;SDS011;45084;51.486;7.366;2024-02-14T09:19:29;7.55;;;6.45;;
59312;SDS011;45084;51.486;7.366;2024-02-14T09:21:55;7.22;;;6.40;;
59312;SDS011;45084;51.486;7.366;2024-02-14T09:24:21;8.70;;;6.30;;
59312;SDS011;45084;51.486;7.366;2024-02-14T09:26:46;7.05;;;5.97;;
59312;SDS011;45084;51.486;7.366;2024-02-14T09:29:12;7.03;;;5.60;;
59312;SDS011;45084;51.486;7.366;2024-02-14T09:31:39;8.48;;;5.50;;
59312;SDS011;45084;51.486;7.366;2024-02-14T09:34:05;5.72;;;5.13;;
59312;SDS011;45084;51.486;7.366;2024-02-14T09:36:30;6.30;;;5.10;;
59312;SDS011;45084;51.486;7.366;2024-02-14T09:38:56;4.63;;;4.20;;
59312;SDS011;45084;51.486;7.366;2024-02-14T09:41:36;6.57;;;4.50;;
59312;SDS011;45084;51.486;7.366;2024-02-14T09:44:05;5.70;;;5.00;;
59312;SDS011;45084;51.486;7.366;2024-02-14T09:46:30;6.10;;;4.25;;
59312;SDS011;45084;51.486;7.366;2024-02-14T09:48:58;5.93;;;4.30;;
59312;SDS011;45084;51.486;7.366;2024-02-14T09:51:26;5.38;;;4.13;;
59312;SDS011;45084;51.486;7.366;2024-02-14T09:53:54;4.47;;;3.80;;
59312;SDS011;45084;51.486;7.366;2024-02-14T09:56:20;5.35;;;4.45;;
59312;SDS011;45084;51.486;7.366;2024-02-14T09:58:49;6.88;;;4.93;;
59312;SDS011;45084;51.486;7.366;2024-02-14T10:01:22;5.65;;;4.65;;
59312;SDS011;45084;51.486;7.366;2024-02-14T10:10:33;4.70;;;4.15;;
59312;SDS011;45084;51.486;7.366;2024-02-14T10:13:05;4.65;;;3.83;;
59312;SDS011;45084;51.486;7.366;2024-02-14T10:15:31;5.38;;;3.70;;
59312;SDS011;45084;51.486;7.366;2024-02-14T10:17:58;3.95;;;3.40;;
59312;SDS011;45084;51.486;7.366;2024-02-14T10:20:24;3.80;;;3.50;;
59312;SDS011;45084;51.486;7.366;2024-02-14T10:22:51;5.10;;;3.95;;
59312;SDS011;45084;51.486;7.366;2024-02-14T10:25:17;4.55;;;4.10;;
59312;SDS011;45084;51.486;7.366;2024-02-14T10:27:44;5.05;;;3.65;;
59312;SDS011;45084;51.486;7.366;2024-02-14T10:30:11;4.18;;;3.53;;
59312;SDS011;45084;51.486;7.366;2024-02-14T10:32:38;3.65;;;3.35;;
59312;SDS011;45084;51.486;7.366;2024-02-14T10:35:05;8.68;;;3.83;;
59312;SDS011;45084;51.486;7.366;2024-02-14T10:37:36;4.82;;;3.55;;
59312;SDS011;45084;51.486;7.366;2024-02-14T10:40:02;5.00;;;3.35;;
59312;SDS011;45084;51.486;7.366;2024-02-14T10:42:29;4.07;;;3.30;;
59312;SDS011;45084;51.486;7.366;2024-02-14T10:44:56;3.67;;;2.88;;
59312;SDS011;45084;51.486;7.366;2024-02-14T10:47:23;3.40;;;2.97;;
59312;SDS011;45084;51.486;7.366;2024-02-14T10:49:55;4.53;;;3.35;;
59312;SDS011;45084;51.486;7.366;2024-02-14T10:52:27;5.55;;;3.25;;
59312;SDS011;45084;51.486;7.366;2024-02-14T10:55:01;5.72;;;3.25;;
59312;SDS011;45084;51.486;7.366;2024-02-14T10:57:28;5.18;;;2.60;;
59312;SDS011;45084;51.486;7.366;2024-02-14T10:59:55;3.13;;;2.40;;
59312;SDS011;45084;51.486;7.366;2024-02-14T11:02:22;2.50;;;2.30;;
59312;SDS011;45084;51.486;7.366;2024-02-14T11:04:49;3.47;;;2.72;;
59312;SDS011;45084;51.486;7.366;2024-02-14T11:07:19;2.95;;;2.28;;
59312;SDS011;45084;51.486;7.366;2024-02-14T11:09:47;3.35;;;2.03;;
59312;SDS011;45084;51.486;7.366;2024-02-14T11:12:13;5.55;;;2.30;;
59312;SDS011;45084;51.486;7.366;2024-02-14T11:14:42;2.50;;;2.28;;
59312;SDS011;45084;51.486;7.366;2024-02-14T11:17:10;2.85;;;2.20;;
59312;SDS011;45084;51.486;7.366;2024-02-14T11:19:38;2.55;;;2.35;;
59312;SDS011;45084;51.486;7.366;2024-02-14T11:22:38;3.97;;;2.20;;
59312;SDS011;45084;51.486;7.366;2024-02-14T11:25:05;7.18;;;1.92;;
59312;SDS011;45084;51.486;7.366;2024-02-14T11:27:32;2.72;;;2.00;;
59312;SDS011;45084;51.486;7.366;2024-02-14T11:29:59;2.90;;;2.15;;
59312;SDS011;45084;51.486;7.366;2024-02-14T11:32:27;2.75;;;2.10;;
59312;SDS011;45084;51.486;7.366;2024-02-14T11:34:56;3.35;;;2.13;;
59312;SDS011;45084;51.486;7.366;2024-02-14T11:37:29;3.08;;;2.35;;
59312;SDS011;45084;51.486;7.366;2024-02-14T11:39:56;2.75;;;2.08;;
59312;SDS011;45084;51.486;7.366;2024-02-14T11:42:23;2.95;;;2.15;;
59312;SDS011;45084;51.486;7.366;2024-02-14T11:44:49;3.70;;;2.55;;
59312;SDS011;45084;51.486;7.366;2024-02-14T11:47:15;2.80;;;2.10;;
59312;SDS011;45084;51.486;7.366;2024-02-14T11:49:41;8.38;;;2.30;;
59312;SDS011;45084;51.486;7.366;2024-02-14T11:52:11;2.65;;;2.30;;
59312;SDS011;45084;51.486;7.366;2024-02-14T11:54:39;10.32;;;2.63;;
59312;SDS011;45084;51.486;7.366;2024-02-14T11:57:04;6.07;;;2.40;;
59312;SDS011;45084;51.486;7.366;2024-02-14T11:59:33;4.47;;;2.35;;
59312;SDS011;45084;51.486;7.366;2024-02-14T12:01:59;3.35;;;2.65;;
59312;SDS011;45084;51.486;7.366;2024-02-14T12:04:27;3.88;;;2.90;;
59312;SDS011;45084;51.486;7.366;2024-02-14T12:06:53;6.68;;;2.47;;
59312;SDS011;45084;51.486;7.366;2024-02-14T12:09:19;3.15;;;2.40;;
59312;SDS011;45084;51.486;7.366;2024-02-14T12:11:46;3.47;;;2.75;;
59312;SDS011;45084;51.486;7.366;2024-02-14T12:14:12;2.75;;;2.55;;
59312;SDS011;45084;51.486;7.366;2024-02-14T12:16:38;5.30;;;2.50;;
59312;SDS011;45084;51.486;7.366;2024-02-14T12:19:13;4.38;;;2.67;;
59312;SDS011;45084;51.486;7.366;2024-02-14T12:21:40;3.00;;;2.70;;
59312;SDS011;45084;51.486;7.366;2024-02-14T12:24:08;4.82;;;3.53;;
59312;SDS011;45084;51.486;7.366;2024-02-14T12:26:38;5.25;;;3.50;;
59312;SDS011;45084;51.486;7.366;2024-02-14T12:29:04;7.28;;;3.88;;
59312;SDS011;45084;51.486;7.366;2024-02-14T12:31:31;6.38;;;4.40;;
59312;SDS011;45084;51.486;7.366;2024-02-14T12:33:58;6.05;;;4.18;;
59312;SDS011;45084;51.486;7.366;2024-02-14T12:36:30;5.50;;;4.28;;
59312;SDS011;45084;51.486;7.366;2024-02-14T12:38:57;4.65;;;4.20;;
59312;SDS011;45084;51.486;7.366;2024-02-14T12:41:23;8.75;;;5.38;;
59312;SDS011;45084;51.486;7.366;2024-02-14T12:43:51;6.80;;;5.03;;
59312;SDS011;45084;51.486;7.366;2024-02-14T12:46:17;7.15;;;5.35;;
59312;SDS011;45084;51.486;7.366;2024-02-14T12:48:43;7.75;;;5.25;;
59312;SDS011;45084;51.486;7.366;2024-02-14T12:51:09;9.23;;;5.53;;
59312;SDS011;45084;51.486;7.366;2024-02-14T12:53:35;7.72;;;5.90;;
59312;SDS011;45084;51.486;7.366;2024-02-14T12:56:00;9.18;;;6.55;;
59312;SDS011;45084;51.486;7.366;2024-02-14T12:58:26;9.15;;;7.07;;
59312;SDS011;45084;51.486;7.366;2024-02-14T13:00:52;8.02;;;7.20;;
59312;SDS011;45084;51.486;7.366;2024-02-14T13:03:18;9.48;;;7.05;;
59312;SDS011;45084;51.486;7.366;2024-02-14T13:05:44;9.70;;;6.90;;
59312;SDS011;45084;51.486;7.366;2024-02-14T13:08:10;8.40;;;6.97;;
59312;SDS011;45084;51.486;7.366;2024-02-14T13:10:36;7.60;;;6.70;;
59312;SDS011;45084;51.486;7.366;2024-02-14T13:13:02;7.53;;;6.60;;
59312;SDS011;45084;51.486;7.366;2024-02-14T13:15:28;8.23;;;6.55;;
59312;SDS011;45084;51.486;7.366;2024-02-14T13:17:53;6.90;;;5.78;;
59312;SDS011;45084;51.486;7.366;2024-02-14T13:20:21;8.00;;;5.55;;
59312;SDS011;45084;51.486;7.366;2024-02-14T13:22:47;4.50;;;4.10;;
59312;SDS011;45084;51.486;7.366;2024-02-14T13:25:12;7.00;;;4.65;;
59312;SDS011;45084;51.486;7.366;2024-02-14T13:27:39;5.20;;;4.53;;
59312;SDS011;45084;51.486;7.366;2024-02-14T13:30:05;3.92;;;3.63;;
59312;SDS011;45084;51.486;7.366;2024-02-14T13:32:32;4.75;;;4.00;;
59312;SDS011;45084;51.486;7.366;2024-02-14T13:34:58;6.18;;;3.35;;
59312;SDS011;45084;51.486;7.366;2024-02-14T13:37:23;4.50;;;2.70;;
59312;SDS011;45084;51.486;7.366;2024-02-14T13:39:50;3.38;;;2.70;;
59312;SDS011;45084;51.486;7.366;2024-02-14T13:42:16;2.72;;;2.53;;
59312;SDS011;45084;51.486;7.366;2024-02-14T13:44:41;2.50;;;2.30;;
59312;SDS011;45084;51.486;7.366;2024-02-14T13:47:08;2.50;;;2.30;;
59312;SDS011;45084;51.486;7.366;2024-02-14T13:49:33;2.80;;;2.53;;
59312;SDS011;45084;51.486;7.366;2024-02-14T13:51:59;2.50;;;2.15;;
59312;SDS011;45084;51.486;7.366;2024-02-14T13:54:24;2.85;;;2.50;;
59312;SDS011;45084;51.486;7.366;2024-02-14T13:56:50;4.63;;;3.00;;
59312;SDS011;45084;51.486;7.366;2024-02-14T13:59:17;3.72;;;3.22;;
59312;SDS011;45084;51.486;7.366;2024-02-14T14:01:46;3.22;;;2.53;;
59312;SDS011;45084;51.486;7.366;2024-02-14T14:04:12;3.22;;;2.92;;
59312;SDS011;45084;51.486;7.366;2024-02-14T14:06:37;3.33;;;3.00;;
59312;SDS011;45084;51.486;7.366;2024-02-14T14:09:04;3.85;;;3.45;;
59312;SDS011;45084;51.486;7.366;2024-02-14T14:14:57;3.65;;;3.40;;
59312;SDS011;45084;51.486;7.366;2024-02-14T14:17:23;4.28;;;3.88;;
59312;SDS011;45084;51.486;7.366;2024-02-14T14:22:37;4.30;;;3.90;;
59312;SDS011;45084;51.486;7.366;2024-02-14T14:25:04;5.03;;;4.45;;
59312;SDS011;45084;51.486;7.366;2024-02-14T14:27:32;6.38;;;4.40;;
59312;SDS011;45084;51.486;7.366;2024-02-14T14:29:58;6.25;;;4.00;;
59312;SDS011;45084;51.486;7.366;2024-02-14T14:32:24;5.05;;;4.55;;
59312;SDS011;45084;51.486;7.366;2024-02-14T14:34:49;5.03;;;4.50;;
59312;SDS011;45084;51.486;7.366;2024-02-14T14:37:15;5.75;;;4.32;;
59312;SDS011;45084;51.486;7.366;2024-02-14T14:39:40;4.75;;;4.28;;
59312;SDS011;45084;51.486;7.366;2024-02-14T14:42:07;4.70;;;4.30;;
59312;SDS011;45084;51.486;7.366;2024-02-14T14:44:33;5.07;;;4.18;;
59312;SDS011;45084;51.486;7.366;2024-02-14T14:46:59;3.90;;;3.60;;
59312;SDS011;45084;51.486;7.366;2024-02-14T14:49:25;3.55;;;3.35;;
59312;SDS011;45084;51.486;7.366;2024-02-14T14:51:51;2.97;;;2.67;;
59312;SDS011;45084;51.486;7.366;2024-02-14T14:54:16;3.75;;;3.22;;
59312;SDS011;45084;51.486;7.366;2024-02-14T14:56:42;2.75;;;2.55;;
59312;SDS011;45084;51.486;7.366;2024-02-14T14:59:08;2.70;;;2.50;;
59312;SDS011;45084;51.486;7.366;2024-02-14T15:01:34;2.70;;;2.50;;
59312;SDS011;45084;51.486;7.366;2024-02-14T15:04:01;3.45;;;2.38;;
59312;SDS011;45084;51.486;7.366;2024-02-14T15:06:27;3.08;;;2.75;;
59312;SDS011;45084;51.486;7.366;2024-02-14T15:08:52;6.15;;;2.83;;
59312;SDS011;45084;51.486;7.366;2024-02-14T15:11:18;3.08;;;2.60;;
59312;SDS011;45084;51.486;7.366;2024-02-14T15:13:45;4.18;;;3.20;;
59312;SDS011;45084;51.486;7.366;2024-02-14T15:16:14;3.22;;;2.53;;
59312;SDS011;45084;51.486;7.366;2024-02-14T15:18:40;5.25;;;2.92;;
59312;SDS011;45084;51.486;7.366;2024-02-14T15:21:08;8.52;;;3.20;;
59312;SDS011;45084;51.486;7.366;2024-02-14T15:23:34;2.83;;;2.50;;
59312;SDS011;45084;51.486;7.366;2024-02-14T15:26:00;4.78;;;2.47;;
59312;SDS011;45084;51.486;7.366;2024-02-14T15:28:29;4.43;;;2.47;;
59312;SDS011;45084;51.486;7.366;2024-02-14T15:30:58;6.03;;;2.72;;
59312;SDS011;45084;51.486;7.366;2024-02-14T15:33:42;4.43;;;2.50;;
59312;SDS011;45084;51.486;7.366;2024-02-14T15:36:09;4.25;;;2.28;;
59312;SDS011;45084;51.486;7.366;2024-02-14T15:38:36;3.05;;;2.30;;
59312;SDS011;45084;51.486;7.366;2024-02-14T15:41:01;3.55;;;2.40;;
59312;SDS011;45084;51.486;7.366;2024-02-14T15:43:28;3.72;;;1.73;;
59312;SDS011;45084;51.486;7.366;2024-02-14T15:45:54;4.32;;;2.10;;
59312;SDS011;45084;51.486;7.366;2024-02-14T15:48:20;2.95;;;2.10;;
59312;SDS011;45084;51.486;7.366;2024-02-14T15:50:46;5.43;;;2.20;;
59312;SDS011;45084;51.486;7.366;2024-02-14T15:53:12;2.17;;;1.85;;
59312;SDS011;45084;51.486;7.366;2024-02-14T15:55:38;2.92;;;1.90;;
59312;SDS011;45084;51.486;7.366;2024-02-14T15:58:05;2.70;;;2.03;;
59312;SDS011;45084;51.486;7.366;2024-02-14T16:00:31;1.88;;;1.73;;
59312;SDS011;45084;51.486;7.366;2024-02-14T16:02:57;2.33;;;2.00;;
59312;SDS011;45084;51.486;7.366;2024-02-14T16:05:24;2.00;;;1.80;;
59312;SDS011;45084;51.486;7.366;2024-02-14T16:07:50;2.10;;;2.00;;
59312;SDS011;45084;51.486;7.366;2024-02-14T16:10:17;2.30;;;2.20;;
59312;SDS011;45084;51.486;7.366;2024-02-14T16:12:43;1.98;;;1.88;;